createdAt,value
2022-10-31T00:00:34.814Z,2.75
2022-10-31T00:03:02.290Z,2.13
2022-10-31T00:05:29.695Z,2.53
2022-10-31T00:07:56.845Z,2.40
2022-10-31T00:10:23.996Z,2.33
2022-10-31T00:12:52.013Z,2.28
2022-10-31T00:15:19.355Z,2.60
2022-10-31T00:17:46.481Z,3.03
2022-10-31T00:20:13.627Z,2.70
2022-10-31T00:22:40.771Z,2.78
2022-10-31T00:25:08.226Z,3.30
2022-10-31T00:27:35.391Z,2.33
2022-10-31T00:30:02.855Z,3.17
2022-10-31T00:32:31.228Z,2.58
2022-10-31T00:34:58.375Z,2.60
2022-10-31T00:37:25.514Z,3.05
2022-10-31T00:39:52.648Z,2.10
2022-10-31T00:42:19.807Z,2.97
2022-10-31T00:44:46.969Z,2.47
2022-10-31T00:47:14.103Z,2.60
2022-10-31T00:49:41.257Z,2.42
2022-10-31T00:52:08.399Z,2.35
2022-10-31T00:54:35.582Z,2.70
2022-10-31T00:57:02.722Z,2.50
2022-10-31T00:59:29.862Z,2.90
2022-10-31T01:01:57.182Z,2.97
2022-10-31T01:04:24.478Z,2.50
2022-10-31T01:06:51.692Z,2.47
2022-10-31T01:09:18.933Z,2.53
2022-10-31T01:11:46.109Z,2.45
2022-10-31T01:14:13.297Z,2.42
2022-10-31T01:16:40.442Z,2.60
2022-10-31T01:19:07.594Z,2.67
2022-10-31T01:21:34.787Z,2.63
2022-10-31T01:24:04.872Z,2.30
2022-10-31T01:26:33.416Z,2.07
2022-10-31T01:29:03.748Z,2.30
2022-10-31T01:31:33.494Z,2.65
2022-10-31T01:34:01.260Z,2.53
2022-10-31T01:36:31.416Z,2.38
2022-10-31T01:39:00.857Z,2.63
2022-10-31T01:41:30.712Z,2.50
2022-10-31T01:44:03.489Z,2.55
2022-10-31T01:46:41.263Z,2.90
2022-10-31T01:49:23.765Z,2.95
2022-10-31T01:51:58.012Z,2.53
2022-10-31T01:54:29.994Z,2.78
2022-10-31T01:56:57.896Z,2.92
2022-10-31T01:59:28.916Z,3.10
2022-10-31T02:01:56.287Z,2.92
2022-10-31T02:04:25.485Z,2.00
2022-10-31T02:07:06.226Z,2.60
2022-10-31T02:09:33.610Z,2.72
2022-10-31T02:12:01.190Z,2.40
2022-10-31T02:14:31.407Z,2.05
2022-10-31T02:16:58.974Z,2.30
2022-10-31T02:20:03.653Z,2.42
2022-10-31T02:23:07.876Z,2.40
2022-10-31T02:26:22.085Z,2.13
2022-10-31T02:29:16.905Z,2.65
2022-10-31T02:32:14.763Z,2.47
2022-10-31T02:35:14.981Z,2.13
2022-10-31T02:38:04.537Z,2.30
2022-10-31T02:40:43.997Z,2.28
2022-10-31T02:43:17.296Z,2.50
2022-10-31T02:46:05.250Z,2.55
2022-10-31T02:48:56.376Z,1.92
2022-10-31T02:51:23.653Z,2.65
2022-10-31T02:53:50.847Z,2.28
2022-10-31T02:56:19.805Z,2.25
2022-10-31T02:59:05.984Z,2.33
2022-10-31T03:02:08.423Z,2.22
2022-10-31T03:04:54.165Z,2.10
2022-10-31T03:07:59.876Z,2.42
2022-10-31T03:10:57.907Z,1.98
2022-10-31T03:13:39.564Z,2.45
2022-10-31T03:16:33.504Z,2.00
2022-10-31T03:19:07.724Z,2.28
2022-10-31T03:21:55.529Z,2.10
2022-10-31T03:24:23.677Z,2.25
2022-10-31T03:26:53.674Z,2.75
2022-10-31T03:29:23.507Z,2.42
2022-10-31T03:31:57.161Z,1.83
2022-10-31T03:34:24.363Z,2.42
2022-10-31T03:36:53.338Z,1.88
2022-10-31T03:39:21.692Z,2.10
2022-10-31T03:41:59.663Z,1.90
2022-10-31T03:44:28.985Z,2.15
2022-10-31T03:46:56.198Z,2.45
2022-10-31T03:49:23.439Z,2.20
2022-10-31T03:52:09.433Z,2.22
2022-10-31T03:54:40.830Z,2.35
2022-10-31T03:57:33.934Z,2.17
2022-10-31T04:00:35.543Z,2.45
2022-10-31T04:03:35.697Z,1.83
2022-10-31T04:06:34.749Z,2.30
2022-10-31T04:09:05.196Z,2.60
2022-10-31T04:11:36.147Z,2.20
2022-10-31T04:14:05.051Z,2.60
2022-10-31T04:16:32.485Z,2.70
2022-10-31T04:18:59.653Z,2.15
2022-10-31T04:21:30.603Z,2.13
2022-10-31T04:23:58.388Z,2.63
2022-10-31T04:26:25.607Z,2.25
2022-10-31T04:28:52.767Z,2.97
2022-10-31T04:31:19.923Z,2.30
2022-10-31T04:33:47.196Z,1.95
2022-10-31T04:36:14.444Z,2.00
2022-10-31T04:38:41.586Z,3.25
2022-10-31T04:41:08.755Z,3.05
2022-10-31T04:43:35.953Z,2.92
2022-10-31T04:46:03.200Z,3.03
2022-10-31T04:48:30.579Z,2.47
2022-10-31T04:51:02.062Z,3.15
2022-10-31T04:53:29.671Z,2.45
2022-10-31T04:55:58.461Z,2.30
2022-10-31T04:58:25.614Z,2.08
2022-10-31T05:00:56.734Z,2.25
2022-10-31T05:03:24.176Z,3.35
2022-10-31T05:05:51.360Z,1.98
2022-10-31T05:08:18.537Z,2.50
2022-10-31T05:10:45.689Z,2.85
2022-10-31T05:13:12.945Z,2.42
2022-10-31T05:15:40.145Z,2.38
2022-10-31T05:18:07.322Z,1.90
2022-10-31T05:20:34.835Z,2.25
2022-10-31T05:23:02.238Z,2.42
2022-10-31T05:25:30.517Z,2.30
2022-10-31T05:27:58.603Z,2.60
2022-10-31T05:30:28.577Z,2.17
2022-10-31T05:32:56.192Z,2.30
2022-10-31T05:35:29.844Z,2.40
2022-10-31T05:37:58.557Z,2.20
2022-10-31T05:40:26.980Z,2.42
2022-10-31T05:42:55.329Z,3.03
2022-10-31T05:45:23.054Z,2.13
2022-10-31T05:48:01.308Z,3.05
2022-10-31T05:50:31.034Z,4.30
2022-10-31T05:53:08.604Z,3.63
2022-10-31T05:55:35.801Z,2.88
2022-10-31T05:58:03.157Z,2.95
2022-10-31T06:00:30.674Z,2.15
2022-10-31T06:03:05.322Z,2.15
2022-10-31T06:05:33.041Z,2.15
2022-10-31T06:08:00.632Z,2.40
2022-10-31T06:10:28.695Z,2.45
2022-10-31T06:12:55.881Z,2.45
2022-10-31T06:15:24.395Z,2.47
2022-10-31T06:18:04.000Z,2.53
2022-10-31T06:20:31.967Z,3.05
2022-10-31T06:22:59.462Z,2.90
2022-10-31T06:25:27.005Z,2.60
2022-10-31T06:27:54.251Z,3.03
2022-10-31T06:30:21.683Z,3.78
2022-10-31T06:32:50.321Z,3.53
2022-10-31T06:35:17.588Z,3.60
2022-10-31T06:37:51.483Z,3.38
2022-10-31T06:40:18.856Z,3.60
2022-10-31T06:42:45.976Z,3.13
2022-10-31T06:45:13.223Z,3.30
2022-10-31T06:47:56.624Z,4.20
2022-10-31T06:50:27.549Z,5.75
2022-10-31T06:52:57.039Z,5.22
2022-10-31T06:55:25.262Z,3.90
2022-10-31T06:57:58.958Z,3.05
2022-10-31T07:00:30.481Z,3.35
2022-10-31T07:03:10.704Z,3.28
2022-10-31T07:05:37.923Z,3.40
2022-10-31T07:08:07.540Z,3.63
2022-10-31T07:10:40.060Z,4.05
2022-10-31T07:13:14.841Z,4.40
2022-10-31T07:15:43.386Z,4.72
2022-10-31T07:18:11.828Z,3.47
2022-10-31T07:20:39.100Z,3.88
2022-10-31T07:23:06.746Z,4.85
2022-10-31T07:25:34.220Z,3.80
2022-10-31T07:28:01.895Z,4.75
2022-10-31T07:30:29.311Z,4.15
2022-10-31T07:32:56.465Z,3.67
2022-10-31T07:35:28.191Z,4.35
2022-10-31T07:37:55.764Z,3.28
2022-10-31T07:40:23.788Z,3.20
2022-10-31T07:42:52.186Z,3.53
2022-10-31T07:45:22.833Z,3.50
2022-10-31T07:47:51.809Z,2.88
2022-10-31T07:50:23.989Z,3.53
2022-10-31T07:53:00.988Z,2.97
2022-10-31T07:55:28.852Z,4.03
2022-10-31T07:58:00.522Z,4.97
2022-10-31T08:00:28.486Z,4.45
2022-10-31T08:03:02.903Z,4.68
2022-10-31T08:05:30.937Z,4.93
2022-10-31T08:07:59.073Z,4.05
2022-10-31T08:10:27.563Z,4.28
2022-10-31T08:13:04.081Z,4.38
2022-10-31T08:15:31.353Z,4.35
2022-10-31T08:17:59.053Z,5.45
2022-10-31T08:20:26.445Z,5.10
2022-10-31T08:22:58.232Z,5.07
2022-10-31T08:25:25.962Z,4.15
2022-10-31T08:27:54.363Z,4.00
2022-10-31T08:30:23.769Z,4.30
2022-10-31T08:33:03.781Z,4.60
2022-10-31T08:35:31.054Z,4.22
2022-10-31T08:37:58.920Z,4.20
2022-10-31T08:40:30.270Z,4.80
2022-10-31T08:43:05.952Z,3.40
2022-10-31T08:45:34.466Z,3.75
2022-10-31T08:48:04.154Z,3.30
2022-10-31T08:50:32.902Z,3.90
2022-10-31T08:53:13.637Z,3.42
2022-10-31T08:55:41.661Z,3.33
2022-10-31T08:58:14.750Z,3.80
2022-10-31T09:00:42.306Z,3.28
2022-10-31T09:03:23.077Z,3.67
2022-10-31T09:05:50.652Z,2.95
2022-10-31T09:08:18.198Z,3.22
2022-10-31T09:10:46.495Z,3.45
2022-10-31T09:13:19.042Z,3.47
2022-10-31T09:15:48.329Z,3.40
2022-10-31T09:18:17.448Z,3.90
2022-10-31T09:20:46.326Z,3.95
2022-10-31T09:23:21.381Z,3.65
2022-10-31T09:29:11.650Z,4.55
2022-10-31T09:34:34.814Z,3.58
2022-10-31T09:37:36.241Z,4.07
2022-10-31T09:40:30.324Z,3.10
2022-10-31T09:43:46.851Z,4.18
2022-10-31T09:47:24.341Z,4.00
2022-10-31T09:51:11.730Z,4.10
2022-10-31T09:53:46.666Z,4.40
2022-10-31T09:56:17.599Z,4.13
2022-10-31T10:01:42.503Z,3.67
2022-10-31T10:04:21.682Z,3.92
2022-10-31T10:06:51.524Z,3.70
2022-10-31T10:11:59.395Z,3.90
2022-10-31T10:14:36.002Z,4.22
2022-10-31T10:17:46.645Z,3.80
2022-10-31T10:20:29.784Z,4.22
2022-10-31T10:23:31.722Z,4.15
2022-10-31T10:26:24.935Z,4.30
2022-10-31T10:29:42.997Z,3.95
2022-10-31T10:36:07.440Z,4.78
2022-10-31T10:39:27.789Z,4.35
2022-10-31T10:45:50.841Z,4.45
2022-10-31T10:48:31.877Z,5.13
2022-10-31T10:50:59.463Z,5.20
2022-10-31T10:54:15.001Z,5.05
2022-10-31T10:56:57.165Z,5.22
2022-10-31T10:59:24.577Z,4.35
2022-10-31T11:01:52.790Z,6.05
2022-10-31T11:04:36.688Z,5.95
2022-10-31T11:07:11.590Z,5.28
2022-10-31T11:13:18.566Z,6.07
2022-10-31T11:16:08.863Z,5.45
2022-10-31T11:18:40.690Z,5.63
2022-10-31T11:21:38.032Z,5.00
2022-10-31T11:24:08.077Z,7.00
2022-10-31T11:26:36.185Z,6.85
2022-10-31T11:29:04.138Z,5.57
2022-10-31T11:31:31.971Z,4.97
2022-10-31T11:34:05.856Z,5.53
2022-10-31T11:36:35.999Z,4.60
2022-10-31T11:39:05.365Z,6.65
2022-10-31T11:41:40.340Z,8.40
2022-10-31T11:44:14.545Z,6.72
2022-10-31T11:46:50.363Z,5.20
2022-10-31T11:49:20.124Z,5.22
2022-10-31T11:51:54.162Z,5.85
2022-10-31T11:54:31.141Z,5.85
2022-10-31T11:56:58.364Z,5.53
2022-10-31T11:59:30.755Z,5.32
2022-10-31T12:02:00.768Z,5.28
2022-10-31T12:04:44.699Z,4.95
2022-10-31T12:07:11.855Z,4.30
2022-10-31T12:09:41.079Z,4.82
2022-10-31T12:12:26.406Z,4.55
2022-10-31T12:15:16.696Z,5.15
2022-10-31T12:18:13.113Z,6.85
2022-10-31T12:21:07.074Z,4.75
2022-10-31T12:24:04.426Z,4.70
2022-10-31T12:26:43.377Z,4.90
2022-10-31T12:29:23.546Z,4.75
2022-10-31T12:32:01.673Z,4.82
2022-10-31T12:34:55.318Z,4.25
2022-10-31T12:37:40.430Z,4.30
2022-10-31T12:40:40.547Z,4.60
2022-10-31T12:43:37.801Z,4.20
2022-10-31T12:46:09.266Z,4.28
2022-10-31T12:49:17.453Z,4.60
2022-10-31T12:52:12.281Z,4.85
2022-10-31T12:55:04.511Z,4.60
2022-10-31T12:57:42.179Z,4.72
2022-10-31T13:00:20.878Z,3.83
2022-10-31T13:03:06.409Z,4.03
2022-10-31T13:05:39.048Z,3.38
2022-10-31T13:08:35.886Z,3.92
2022-10-31T13:11:19.837Z,4.05
2022-10-31T13:14:12.253Z,4.20
2022-10-31T13:16:42.635Z,3.65
2022-10-31T13:19:12.704Z,3.45
2022-10-31T13:22:07.834Z,4.70
2022-10-31T13:24:55.665Z,5.10
2022-10-31T13:27:23.553Z,4.38
2022-10-31T13:30:12.163Z,4.63
2022-10-31T13:32:55.290Z,4.88
2022-10-31T13:35:37.492Z,5.68
2022-10-31T13:38:41.769Z,5.18
2022-10-31T13:41:44.578Z,5.10
2022-10-31T13:44:20.763Z,4.88
2022-10-31T13:46:48.208Z,5.20
2022-10-31T13:49:30.609Z,4.45
2022-10-31T13:52:13.118Z,5.53
2022-10-31T13:54:47.738Z,5.20
2022-10-31T13:57:29.051Z,4.78
2022-10-31T14:00:04.985Z,5.45
2022-10-31T14:02:36.802Z,5.20
2022-10-31T14:05:24.773Z,4.47
2022-10-31T14:07:53.725Z,4.30
2022-10-31T14:10:32.011Z,5.05
2022-10-31T14:13:22.293Z,4.97
2022-10-31T14:16:03.961Z,4.60
2022-10-31T14:18:34.799Z,4.55
2022-10-31T14:23:33.615Z,4.68
2022-10-31T14:26:28.032Z,4.85
2022-10-31T14:29:16.696Z,5.50
2022-10-31T14:32:16.328Z,4.93
2022-10-31T14:34:55.263Z,4.80
2022-10-31T14:37:35.719Z,4.80
2022-10-31T14:40:14.642Z,5.28
2022-10-31T14:42:47.814Z,5.63
2022-10-31T14:45:28.228Z,5.07
2022-10-31T14:48:06.795Z,5.57
2022-10-31T14:51:09.618Z,5.28
2022-10-31T14:53:49.193Z,5.38
2022-10-31T14:56:27.870Z,4.72
2022-10-31T14:58:57.751Z,5.65
2022-10-31T15:01:29.486Z,5.63
2022-10-31T15:04:22.320Z,5.15
2022-10-31T15:07:24.182Z,4.78
2022-10-31T15:10:07.282Z,4.70
2022-10-31T15:12:38.968Z,4.35
2022-10-31T15:15:13.443Z,6.75
2022-10-31T15:17:45.728Z,4.38
2022-10-31T15:20:13.781Z,4.43
2022-10-31T15:22:40.946Z,5.40
2022-10-31T15:25:23.553Z,4.88
2022-10-31T15:27:51.850Z,4.47
2022-10-31T15:30:24.141Z,4.85
2022-10-31T15:32:58.206Z,5.18
2022-10-31T15:35:30.537Z,5.25
2022-10-31T15:38:02.592Z,5.40
2022-10-31T15:40:30.068Z,6.45
2022-10-31T15:43:05.588Z,6.20
2022-10-31T15:45:33.092Z,6.78
2022-10-31T15:48:02.828Z,10.00
2022-10-31T15:50:37.077Z,10.35
2022-10-31T15:53:05.937Z,9.48
2022-10-31T15:55:37.734Z,9.18
2022-10-31T15:58:12.589Z,8.82
2022-10-31T16:00:41.512Z,39.20
2022-10-31T16:03:15.337Z,12.75
2022-10-31T16:05:52.968Z,12.98
2022-10-31T16:08:26.598Z,10.65
2022-10-31T16:10:54.808Z,10.70
2022-10-31T16:13:28.931Z,10.20
2022-10-31T16:16:28.812Z,17.10
2022-10-31T16:18:48.476Z,10.75
2022-10-31T16:21:15.662Z,10.18
2022-10-31T16:23:48.498Z,9.85
2022-10-31T16:26:18.656Z,9.60
2022-10-31T16:29:03.205Z,11.77
2022-10-31T16:31:40.851Z,9.45
2022-10-31T16:34:26.224Z,9.60
2022-10-31T16:36:54.233Z,9.27
2022-10-31T16:39:21.467Z,9.10
2022-10-31T16:41:52.497Z,8.98
2022-10-31T16:44:27.151Z,9.45
2022-10-31T16:47:16.149Z,9.00
2022-10-31T16:49:44.103Z,9.50
2022-10-31T16:52:11.351Z,9.65
2022-10-31T16:54:38.509Z,9.35
2022-10-31T16:57:06.574Z,8.10
2022-10-31T16:59:34.702Z,10.70
2022-10-31T17:02:02.287Z,9.18
2022-10-31T17:04:29.602Z,11.10
2022-10-31T17:06:56.846Z,9.70
2022-10-31T17:09:23.963Z,10.63
2022-10-31T17:11:52.235Z,9.90
2022-10-31T17:14:20.178Z,10.15
2022-10-31T17:16:47.308Z,9.73
2022-10-31T17:19:14.476Z,10.48
2022-10-31T17:21:41.988Z,10.27
2022-10-31T17:24:15.124Z,10.18
2022-10-31T17:26:42.574Z,10.38
2022-10-31T17:29:09.699Z,9.82
2022-10-31T17:31:39.085Z,10.82
2022-10-31T17:34:07.121Z,10.80
2022-10-31T17:36:35.037Z,10.07
2022-10-31T17:39:03.475Z,10.50
2022-10-31T17:41:30.617Z,10.43
2022-10-31T17:43:58.437Z,9.60
2022-10-31T17:46:25.760Z,11.05
2022-10-31T17:48:52.905Z,11.00
2022-10-31T17:51:20.073Z,9.73
2022-10-31T17:53:47.226Z,10.10
2022-10-31T17:56:14.349Z,9.82
2022-10-31T17:58:52.048Z,9.98
2022-10-31T18:01:29.835Z,10.48
2022-10-31T18:04:20.755Z,9.60
2022-10-31T18:07:21.855Z,7.95
2022-10-31T18:09:55.271Z,8.43
2022-10-31T18:12:32.038Z,9.35
2022-10-31T18:15:06.734Z,8.90
2022-10-31T18:17:47.108Z,9.60
2022-10-31T18:20:18.662Z,8.80
2022-10-31T18:23:06.997Z,7.93
2022-10-31T18:25:51.124Z,7.85
2022-10-31T18:28:26.052Z,7.85
2022-10-31T18:31:07.280Z,7.30
2022-10-31T18:36:14.523Z,7.28
2022-10-31T18:38:59.824Z,6.97
2022-10-31T18:41:39.775Z,6.55
2022-10-31T18:44:31.902Z,6.25
2022-10-31T18:46:59.038Z,6.07
2022-10-31T18:49:26.217Z,5.60
2022-10-31T18:51:53.484Z,5.10
2022-10-31T18:54:20.681Z,5.40
2022-10-31T18:56:47.878Z,5.97
2022-10-31T18:59:15.032Z,6.88
2022-10-31T19:01:42.366Z,5.85
2022-10-31T19:04:11.666Z,5.32
2022-10-31T19:06:38.861Z,6.15
2022-10-31T19:09:09.470Z,5.55
2022-10-31T19:11:37.549Z,6.80
2022-10-31T19:14:05.545Z,6.43
2022-10-31T19:16:34.410Z,7.07
2022-10-31T19:19:01.631Z,7.13
2022-10-31T19:21:30.331Z,6.30
2022-10-31T19:23:58.128Z,5.63
2022-10-31T19:26:26.206Z,4.53
2022-10-31T19:28:54.536Z,4.68
2022-10-31T19:31:21.768Z,3.85
2022-10-31T19:33:48.996Z,4.45
2022-10-31T19:36:18.480Z,4.45
2022-10-31T19:38:47.405Z,4.45
2022-10-31T19:41:26.034Z,4.13
2022-10-31T19:43:53.974Z,4.63
2022-10-31T19:46:40.551Z,3.60
2022-10-31T19:49:10.976Z,3.70
2022-10-31T19:51:38.146Z,3.33
2022-10-31T19:54:05.321Z,3.10
2022-10-31T19:56:32.461Z,3.88
2022-10-31T19:58:59.787Z,2.72
2022-10-31T20:01:26.995Z,3.00
2022-10-31T20:03:54.218Z,3.28
2022-10-31T20:06:24.304Z,3.33
2022-10-31T20:08:52.386Z,2.83
2022-10-31T20:11:20.590Z,3.17
2022-10-31T20:13:47.896Z,3.65
2022-10-31T20:16:16.005Z,3.13
2022-10-31T20:18:43.886Z,2.97
2022-10-31T20:21:19.389Z,3.88
2022-10-31T20:23:47.516Z,3.90
2022-10-31T20:26:17.658Z,3.60
2022-10-31T20:28:45.459Z,3.17
2022-10-31T20:31:18.669Z,3.17
2022-10-31T20:33:46.253Z,3.15
2022-10-31T20:36:14.469Z,4.18
2022-10-31T20:38:42.279Z,3.97
2022-10-31T20:41:10.967Z,3.17
2022-10-31T20:43:38.801Z,3.50
2022-10-31T20:46:09.857Z,3.50
2022-10-31T20:48:37.168Z,2.83
2022-10-31T20:51:06.839Z,3.70
2022-10-31T20:53:34.224Z,3.40
2022-10-31T20:56:19.419Z,3.40
2022-10-31T20:58:47.253Z,3.30
2022-10-31T21:01:22.671Z,3.30
2022-10-31T21:03:50.448Z,4.80
2022-10-31T21:06:18.669Z,3.63
2022-10-31T21:08:45.815Z,3.42
2022-10-31T21:11:16.094Z,3.85
2022-10-31T21:13:44.629Z,3.83
2022-10-31T21:16:14.762Z,3.92
2022-10-31T21:18:43.151Z,3.47
2022-10-31T21:21:14.542Z,3.53
2022-10-31T21:23:43.056Z,5.10
2022-10-31T21:26:13.693Z,4.05
2022-10-31T21:28:41.268Z,3.65
2022-10-31T21:31:10.505Z,3.88
2022-10-31T21:33:37.902Z,3.10
2022-10-31T21:36:05.691Z,3.92
2022-10-31T21:38:33.596Z,3.70
2022-10-31T21:41:02.039Z,4.50
2022-10-31T21:43:30.468Z,3.55
2022-10-31T21:46:06.559Z,3.55
2022-10-31T21:48:39.339Z,2.97
2022-10-31T21:51:08.970Z,3.20
2022-10-31T21:53:55.667Z,3.00
2022-10-31T21:56:23.871Z,2.65
2022-10-31T21:58:51.721Z,3.13
2022-10-31T22:01:19.382Z,3.45
2022-10-31T22:03:46.678Z,3.25
2022-10-31T22:06:14.529Z,3.13
2022-10-31T22:08:42.109Z,3.25
2022-10-31T22:11:17.240Z,2.45
2022-10-31T22:13:46.413Z,2.80
2022-10-31T22:16:18.485Z,3.15
2022-10-31T22:18:46.149Z,2.78
2022-10-31T22:21:16.220Z,3.58
2022-10-31T22:23:43.805Z,3.83
2022-10-31T22:26:15.424Z,2.63
2022-10-31T22:28:47.680Z,2.90
2022-10-31T22:31:17.390Z,3.08
2022-10-31T22:33:45.577Z,3.35
2022-10-31T22:36:15.326Z,2.60
2022-10-31T22:38:43.040Z,2.97
2022-10-31T22:41:15.176Z,2.70
2022-10-31T22:43:42.630Z,2.90
2022-10-31T22:46:13.309Z,3.30
2022-10-31T22:48:43.109Z,3.03
2022-10-31T22:51:13.655Z,3.22
2022-10-31T22:53:41.039Z,3.08
2022-10-31T22:56:10.364Z,3.08
2022-10-31T22:58:37.761Z,3.58
2022-10-31T23:01:16.252Z,3.28
2022-10-31T23:03:43.633Z,3.60
2022-10-31T23:06:13.608Z,3.60
2022-10-31T23:08:41.275Z,3.20
2022-10-31T23:11:34.615Z,3.10
2022-10-31T23:14:14.328Z,3.53
2022-10-31T23:16:47.779Z,3.45
2022-10-31T23:19:21.944Z,3.42
2022-10-31T23:21:55.028Z,3.55
2022-10-31T23:24:38.542Z,3.90
2022-10-31T23:27:23.674Z,3.45
2022-10-31T23:29:58.017Z,3.60
2022-10-31T23:32:26.503Z,3.92
2022-10-31T23:35:01.797Z,3.20
2022-10-31T23:37:30.759Z,3.65
2022-10-31T23:39:58.335Z,3.78
2022-10-31T23:42:26.481Z,3.60
2022-10-31T23:44:53.738Z,3.95
2022-10-31T23:47:21.702Z,3.60
2022-10-31T23:49:49.233Z,3.50
2022-10-31T23:52:16.882Z,3.78
2022-10-31T23:54:44.185Z,3.20
2022-10-31T23:57:13.164Z,3.13
2022-10-31T23:59:40.419Z,3.60
